sensor_id;sensor_type;location;lat;lon;timestamp;pressure;altitude;pressure_sealevel;temperature;humidity
60355;BME280;46198;51.464;-0.066;2023-06-10T00:00:10;101259.41;;;17.86;100.00
60355;BME280;46198;51.464;-0.066;2023-06-10T00:02:42;101252.53;;;17.83;100.00
60355;BME280;46198;51.464;-0.066;2023-06-10T00:05:11;101250.28;;;17.80;100.00
60355;BME280;46198;51.464;-0.066;2023-06-10T00:07:39;101251.03;;;17.76;100.00
60355;BME280;46198;51.464;-0.066;2023-06-10T00:10:08;101259.22;;;17.70;100.00
60355;BME280;46198;51.464;-0.066;2023-06-10T00:12:38;101258.69;;;17.73;100.00
60355;BME280;46198;51.464;-0.066;2023-06-10T00:15:09;101258.00;;;17.61;100.00
60355;BME280;46198;51.464;-0.066;2023-06-10T00:17:38;101259.38;;;17.64;100.00
60355;BME280;46198;51.464;-0.066;2023-06-10T00:20:08;101257.69;;;17.58;100.00
60355;BME280;46198;51.464;-0.066;2023-06-10T00:22:39;101251.50;;;17.45;100.00
60355;BME280;46198;51.464;-0.066;2023-06-10T00:25:09;101252.06;;;17.47;100.00
60355;BME280;46198;51.464;-0.066;2023-06-10T00:27:39;101254.50;;;17.44;100.00
60355;BME280;46198;51.464;-0.066;2023-06-10T00:30:08;101246.00;;;17.45;100.00
60355;BME280;46198;51.464;-0.066;2023-06-10T00:32:36;101246.84;;;17.46;100.00
60355;BME280;46198;51.464;-0.066;2023-06-10T00:35:05;101240.53;;;17.45;100.00
60355;BME280;46198;51.464;-0.066;2023-06-10T00:37:35;101240.19;;;17.42;100.00
60355;BME280;46198;51.464;-0.066;2023-06-10T00:40:04;101233.03;;;17.41;100.00
60355;BME280;46198;51.464;-0.066;2023-06-10T00:42:32;101230.44;;;17.29;100.00
60355;BME280;46198;51.464;-0.066;2023-06-10T00:45:02;101239.00;;;17.33;100.00
60355;BME280;46198;51.464;-0.066;2023-06-10T00:47:31;101235.06;;;17.28;100.00
60355;BME280;46198;51.464;-0.066;2023-06-10T00:49:59;101236.69;;;17.24;100.00
60355;BME280;46198;51.464;-0.066;2023-06-10T00:52:29;101231.13;;;17.19;100.00
60355;BME280;46198;51.464;-0.066;2023-06-10T00:54:57;101231.13;;;17.19;100.00
60355;BME280;46198;51.464;-0.066;2023-06-10T00:57:26;101225.31;;;17.16;100.00
60355;BME280;46198;51.464;-0.066;2023-06-10T00:59:56;101233.78;;;17.14;100.00
60355;BME280;46198;51.464;-0.066;2023-06-10T01:02:27;101222.81;;;17.14;100.00
60355;BME280;46198;51.464;-0.066;2023-06-10T01:04:58;101229.34;;;17.08;100.00
60355;BME280;46198;51.464;-0.066;2023-06-10T01:07:33;101221.41;;;17.12;100.00
60355;BME280;46198;51.464;-0.066;2023-06-10T01:10:09;101226.84;;;17.06;100.00
60355;BME280;46198;51.464;-0.066;2023-06-10T01:12:43;101223.69;;;16.98;100.00
60355;BME280;46198;51.464;-0.066;2023-06-10T01:15:16;101224.00;;;17.01;100.00
60355;BME280;46198;51.464;-0.066;2023-06-10T01:18:00;101216.63;;;17.02;100.00
60355;BME280;46198;51.464;-0.066;2023-06-10T01:20:32;101216.06;;;17.00;100.00
60355;BME280;46198;51.464;-0.066;2023-06-10T01:23:02;101216.06;;;17.00;100.00
60355;BME280;46198;51.464;-0.066;2023-06-10T01:25:31;101214.88;;;16.96;100.00
60355;BME280;46198;51.464;-0.066;2023-06-10T01:28:05;101208.41;;;16.85;100.00
60355;BME280;46198;51.464;-0.066;2023-06-10T01:30:38;101221.16;;;16.91;100.00
60355;BME280;46198;51.464;-0.066;2023-06-10T01:33:10;101215.31;;;16.88;100.00
60355;BME280;46198;51.464;-0.066;2023-06-10T01:35:43;101223.31;;;16.89;100.00
60355;BME280;46198;51.464;-0.066;2023-06-10T01:38:13;101221.31;;;16.84;100.00
60355;BME280;46198;51.464;-0.066;2023-06-10T01:40:42;101205.94;;;16.83;100.00
60355;BME280;46198;51.464;-0.066;2023-06-10T01:43:11;101205.94;;;16.83;100.00
60355;BME280;46198;51.464;-0.066;2023-06-10T01:45:39;101203.22;;;16.83;100.00
60355;BME280;46198;51.464;-0.066;2023-06-10T01:48:07;101209.09;;;16.75;100.00
60355;BME280;46198;51.464;-0.066;2023-06-10T01:50:35;101208.63;;;16.78;100.00
60355;BME280;46198;51.464;-0.066;2023-06-10T01:53:04;101207.28;;;16.64;100.00
60355;BME280;46198;51.464;-0.066;2023-06-10T01:55:36;101196.94;;;16.71;100.00
60355;BME280;46198;51.464;-0.066;2023-06-10T01:58:05;101200.78;;;16.70;100.00
60355;BME280;46198;51.464;-0.066;2023-06-10T02:00:33;101208.19;;;16.70;100.00
60355;BME280;46198;51.464;-0.066;2023-06-10T02:03:01;101204.53;;;16.64;100.00
60355;BME280;46198;51.464;-0.066;2023-06-10T02:05:29;101200.13;;;16.63;100.00
60355;BME280;46198;51.464;-0.066;2023-06-10T02:07:58;101201.97;;;16.57;100.00
60355;BME280;46198;51.464;-0.066;2023-06-10T02:10:26;101206.63;;;16.57;100.00
60355;BME280;46198;51.464;-0.066;2023-06-10T02:12:58;101207.13;;;16.54;100.00
60355;BME280;46198;51.464;-0.066;2023-06-10T02:15:26;101204.31;;;16.49;100.00
60355;BME280;46198;51.464;-0.066;2023-06-10T02:17:54;101203.22;;;16.50;100.00
60355;BME280;46198;51.464;-0.066;2023-06-10T02:20:22;101212.44;;;16.44;100.00
60355;BME280;46198;51.464;-0.066;2023-06-10T02:22:50;101203.63;;;16.42;100.00
60355;BME280;46198;51.464;-0.066;2023-06-10T02:25:19;101204.97;;;16.39;100.00
60355;BME280;46198;51.464;-0.066;2023-06-10T02:27:47;101203.63;;;16.42;100.00
60355;BME280;46198;51.464;-0.066;2023-06-10T02:30:16;101206.78;;;16.33;100.00
60355;BME280;46198;51.464;-0.066;2023-06-10T02:32:45;101205.13;;;16.32;100.00
60355;BME280;46198;51.464;-0.066;2023-06-10T02:35:16;101210.53;;;16.27;100.00
60355;BME280;46198;51.464;-0.066;2023-06-10T02:37:45;101212.19;;;16.28;100.00
60355;BME280;46198;51.464;-0.066;2023-06-10T02:40:14;101208.78;;;16.21;100.00
60355;BME280;46198;51.464;-0.066;2023-06-10T02:42:42;101204.88;;;16.17;100.00
60355;BME280;46198;51.464;-0.066;2023-06-10T02:45:11;101207.59;;;16.17;100.00
60355;BME280;46198;51.464;-0.066;2023-06-10T02:47:43;101206.69;;;16.11;100.00
60355;BME280;46198;51.464;-0.066;2023-06-10T02:50:12;101211.34;;;16.11;100.00
60355;BME280;46198;51.464;-0.066;2023-06-10T02:52:53;101206.88;;;16.05;100.00
60355;BME280;46198;51.464;-0.066;2023-06-10T02:55:22;101206.09;;;15.92;100.00
60355;BME280;46198;51.464;-0.066;2023-06-10T02:57:58;101213.72;;;15.90;100.00
60355;BME280;46198;51.464;-0.066;2023-06-10T03:00:28;101204.44;;;15.91;100.00
60355;BME280;46198;51.464;-0.066;2023-06-10T03:02:58;101206.38;;;15.79;100.00
60355;BME280;46198;51.464;-0.066;2023-06-10T03:05:35;101204.16;;;15.76;100.00
60355;BME280;46198;51.464;-0.066;2023-06-10T03:08:05;101210.72;;;15.75;100.00
60355;BME280;46198;51.464;-0.066;2023-06-10T03:10:36;101203.22;;;15.70;100.00
60355;BME280;46198;51.464;-0.066;2023-06-10T03:13:04;101199.53;;;15.65;100.00
60355;BME280;46198;51.464;-0.066;2023-06-10T03:15:33;101202.50;;;15.63;100.00
60355;BME280;46198;51.464;-0.066;2023-06-10T03:18:07;101204.31;;;15.58;100.00
60355;BME280;46198;51.464;-0.066;2023-06-10T03:20:36;101198.84;;;15.58;100.00
60355;BME280;46198;51.464;-0.066;2023-06-10T03:23:09;101202.88;;;15.55;100.00
60355;BME280;46198;51.464;-0.066;2023-06-10T03:25:37;101206.28;;;15.45;100.00
60355;BME280;46198;51.464;-0.066;2023-06-10T03:28:05;101195.81;;;15.42;100.00
60355;BME280;46198;51.464;-0.066;2023-06-10T03:30:35;101200.47;;;15.42;100.00
60355;BME280;46198;51.464;-0.066;2023-06-10T03:33:03;101203.44;;;15.40;100.00
60355;BME280;46198;51.464;-0.066;2023-06-10T03:35:33;101202.25;;;15.36;100.00
60355;BME280;46198;51.464;-0.066;2023-06-10T03:38:03;101209.88;;;15.34;100.00
60355;BME280;46198;51.464;-0.066;2023-06-10T03:40:31;101204.53;;;15.27;100.00
60355;BME280;46198;51.464;-0.066;2023-06-10T03:43:00;101205.84;;;15.25;100.00
60355;BME280;46198;51.464;-0.066;2023-06-10T03:45:29;101206.34;;;15.22;100.00
60355;BME280;46198;51.464;-0.066;2023-06-10T03:47:59;101209.06;;;15.22;100.00
60355;BME280;46198;51.464;-0.066;2023-06-10T03:50:36;101214.91;;;15.14;100.00
60355;BME280;46198;51.464;-0.066;2023-06-10T03:53:04;101208.84;;;15.12;100.00
60355;BME280;46198;51.464;-0.066;2023-06-10T03:55:33;101213.84;;;15.15;100.00
60355;BME280;46198;51.464;-0.066;2023-06-10T03:58:01;101208.84;;;15.12;100.00
60355;BME280;46198;51.464;-0.066;2023-06-10T04:00:29;101204.72;;;15.09;100.00
60355;BME280;46198;51.464;-0.066;2023-06-10T04:03:00;101207.19;;;15.11;100.00
60355;BME280;46198;51.464;-0.066;2023-06-10T04:05:33;101199.97;;;15.04;100.00
60355;BME280;46198;51.464;-0.066;2023-06-10T04:08:03;101204.34;;;15.05;100.00
60355;BME280;46198;51.464;-0.066;2023-06-10T04:10:31;101204.13;;;15.07;100.00
60355;BME280;46198;51.464;-0.066;2023-06-10T04:13:01;101201.28;;;15.02;100.00
60355;BME280;46198;51.464;-0.066;2023-06-10T04:15:35;101203.28;;;14.95;100.00
60355;BME280;46198;51.464;-0.066;2023-06-10T04:18:08;101209.34;;;14.97;100.00
60355;BME280;46198;51.464;-0.066;2023-06-10T04:20:36;101207.72;;;14.96;100.00
60355;BME280;46198;51.464;-0.066;2023-06-10T04:23:06;101211.97;;;14.92;100.00
60355;BME280;46198;51.464;-0.066;2023-06-10T04:25:34;101212.31;;;14.95;100.00
60355;BME280;46198;51.464;-0.066;2023-06-10T04:28:03;101211.50;;;14.95;100.00
60355;BME280;46198;51.464;-0.066;2023-06-10T04:30:31;101209.97;;;14.99;100.00
60355;BME280;46198;51.464;-0.066;2023-06-10T04:33:00;101207.34;;;14.92;100.00
60355;BME280;46198;51.464;-0.066;2023-06-10T04:35:29;101205.19;;;14.94;100.00
60355;BME280;46198;51.464;-0.066;2023-06-10T04:37:59;101212.69;;;14.99;100.00
60355;BME280;46198;51.464;-0.066;2023-06-10T04:40:31;101218.66;;;14.96;100.00
60355;BME280;46198;51.464;-0.066;2023-06-10T04:43:00;101209.00;;;14.93;100.00
60355;BME280;46198;51.464;-0.066;2023-06-10T04:45:28;101210.19;;;14.97;100.00
60355;BME280;46198;51.464;-0.066;2023-06-10T04:47:57;101215.91;;;14.96;100.00
60355;BME280;46198;51.464;-0.066;2023-06-10T04:50:27;101211.38;;;15.01;100.00
60355;BME280;46198;51.464;-0.066;2023-06-10T04:52:55;101202.56;;;14.99;100.00
60355;BME280;46198;51.464;-0.066;2023-06-10T04:55:24;101204.81;;;15.02;100.00
60355;BME280;46198;51.464;-0.066;2023-06-10T04:57:53;101212.31;;;15.07;100.00
60355;BME280;46198;51.464;-0.066;2023-06-10T05:00:22;101208.75;;;15.06;100.00
60355;BME280;46198;51.464;-0.066;2023-06-10T05:02:50;101211.00;;;15.10;100.00
60355;BME280;46198;51.464;-0.066;2023-06-10T05:05:19;101202.31;;;15.13;100.00
60355;BME280;46198;51.464;-0.066;2023-06-10T05:07:47;101207.78;;;15.13;100.00
60355;BME280;46198;51.464;-0.066;2023-06-10T05:10:15;101210.03;;;15.16;100.00
60355;BME280;46198;51.464;-0.066;2023-06-10T05:12:43;101197.53;;;15.20;100.00
60355;BME280;46198;51.464;-0.066;2023-06-10T05:15:12;101196.22;;;15.22;100.00
60355;BME280;46198;51.464;-0.066;2023-06-10T05:17:40;101202.53;;;15.23;100.00
60355;BME280;46198;51.464;-0.066;2023-06-10T05:20:09;101206.22;;;15.28;100.00
60355;BME280;46198;51.464;-0.066;2023-06-10T05:22:38;101203.00;;;15.32;100.00
60355;BME280;46198;51.464;-0.066;2023-06-10T05:25:06;101195.94;;;15.36;100.00
60355;BME280;46198;51.464;-0.066;2023-06-10T05:27:35;101185.09;;;15.41;100.00
60355;BME280;46198;51.464;-0.066;2023-06-10T05:30:06;101189.84;;;15.45;100.00
60355;BME280;46198;51.464;-0.066;2023-06-10T05:32:35;101193.41;;;15.46;100.00
60355;BME280;46198;51.464;-0.066;2023-06-10T05:35:04;101193.34;;;15.58;100.00
60355;BME280;46198;51.464;-0.066;2023-06-10T05:37:33;101198.09;;;15.62;100.00
60355;BME280;46198;51.464;-0.066;2023-06-10T05:40:04;101202.03;;;15.66;100.00
60355;BME280;46198;51.464;-0.066;2023-06-10T05:42:33;101205.47;;;15.73;100.00
60355;BME280;46198;51.464;-0.066;2023-06-10T05:45:01;101209.72;;;15.81;100.00
60355;BME280;46198;51.464;-0.066;2023-06-10T05:47:29;101197.22;;;15.85;100.00
60355;BME280;46198;51.464;-0.066;2023-06-10T05:49:59;101207.78;;;15.93;100.00
60355;BME280;46198;51.464;-0.066;2023-06-10T05:52:27;101212.88;;;15.90;100.00
60355;BME280;46198;51.464;-0.066;2023-06-10T05:54:55;101212.06;;;15.89;100.00
60355;BME280;46198;51.464;-0.066;2023-06-10T05:57:23;101208.34;;;15.95;100.00
60355;BME280;46198;51.464;-0.066;2023-06-10T05:59:51;101215.00;;;16.00;100.00
60355;BME280;46198;51.464;-0.066;2023-06-10T06:02:20;101209.75;;;15.98;100.00
60355;BME280;46198;51.464;-0.066;2023-06-10T06:04:48;101212.94;;;16.07;100.00
60355;BME280;46198;51.464;-0.066;2023-06-10T06:07:17;101206.97;;;16.10;100.00
60355;BME280;46198;51.464;-0.066;2023-06-10T06:09:47;101214.59;;;16.25;100.00
60355;BME280;46198;51.464;-0.066;2023-06-10T06:12:15;101208.13;;;16.31;100.00
60355;BME280;46198;51.464;-0.066;2023-06-10T06:14:43;101209.94;;;16.25;100.00
60355;BME280;46198;51.464;-0.066;2023-06-10T06:17:11;101205.63;;;16.29;100.00
60355;BME280;46198;51.464;-0.066;2023-06-10T06:19:39;101213.19;;;16.39;100.00
60355;BME280;46198;51.464;-0.066;2023-06-10T06:22:07;101215.09;;;16.38;100.00
60355;BME280;46198;51.464;-0.066;2023-06-10T06:24:37;101209.28;;;16.52;100.00
60355;BME280;46198;51.464;-0.066;2023-06-10T06:27:05;101207.22;;;16.59;100.00
60355;BME280;46198;51.464;-0.066;2023-06-10T06:29:33;101206.78;;;16.67;100.00
60355;BME280;46198;51.464;-0.066;2023-06-10T06:32:02;101209.53;;;16.67;100.00
60355;BME280;46198;51.464;-0.066;2023-06-10T06:34:30;101212.44;;;16.77;100.00
60355;BME280;46198;51.464;-0.066;2023-06-10T06:37:00;101202.63;;;16.81;100.00
60355;BME280;46198;51.464;-0.066;2023-06-10T06:39:30;101211.06;;;16.97;100.00
60355;BME280;46198;51.464;-0.066;2023-06-10T06:42:00;101210.81;;;16.98;100.00
60355;BME280;46198;51.464;-0.066;2023-06-10T06:44:46;101208.72;;;17.05;100.00
60355;BME280;46198;51.464;-0.066;2023-06-10T06:47:14;101212.94;;;17.13;100.00
60355;BME280;46198;51.464;-0.066;2023-06-10T06:49:44;101211.97;;;17.24;100.00
60355;BME280;46198;51.464;-0.066;2023-06-10T06:52:12;101217.28;;;17.31;100.00
60355;BME280;46198;51.464;-0.066;2023-06-10T06:54:41;101220.41;;;17.40;100.00
60355;BME280;46198;51.464;-0.066;2023-06-10T06:57:10;101216.69;;;17.51;100.00
60355;BME280;46198;51.464;-0.066;2023-06-10T06:59:38;101226.44;;;17.64;100.00
60355;BME280;46198;51.464;-0.066;2023-06-10T07:02:06;101225.09;;;17.66;100.00
60355;BME280;46198;51.464;-0.066;2023-06-10T07:04:34;101218.63;;;17.78;100.00
60355;BME280;46198;51.464;-0.066;2023-06-10T07:07:04;101220.63;;;17.82;100.00
60355;BME280;46198;51.464;-0.066;2023-06-10T07:09:33;101213.22;;;17.83;100.00
60355;BME280;46198;51.464;-0.066;2023-06-10T07:12:01;101215.31;;;17.98;100.00
60355;BME280;46198;51.464;-0.066;2023-06-10T07:14:30;101213.19;;;18.10;100.00
60355;BME280;46198;51.464;-0.066;2023-06-10T07:16:58;101218.50;;;18.16;100.00
60355;BME280;46198;51.464;-0.066;2023-06-10T07:19:26;101210.34;;;18.27;100.00
60355;BME280;46198;51.464;-0.066;2023-06-10T07:21:54;101216.47;;;18.39;100.00
60355;BME280;46198;51.464;-0.066;2023-06-10T07:24:23;101220.97;;;18.50;100.00
60355;BME280;46198;51.464;-0.066;2023-06-10T07:26:51;101213.00;;;18.49;100.00
60355;BME280;46198;51.464;-0.066;2023-06-10T07:29:19;101225.41;;;18.51;100.00
60355;BME280;46198;51.464;-0.066;2023-06-10T07:31:48;101216.69;;;18.70;100.00
60355;BME280;46198;51.464;-0.066;2023-06-10T07:34:16;101217.69;;;18.91;100.00
60355;BME280;46198;51.464;-0.066;2023-06-10T07:36:44;101216.41;;;19.03;100.00
60355;BME280;46198;51.464;-0.066;2023-06-10T07:39:12;101218.09;;;19.15;100.00
60355;BME280;46198;51.464;-0.066;2023-06-10T07:41:41;101214.41;;;19.46;100.00
60355;BME280;46198;51.464;-0.066;2023-06-10T07:44:09;101216.97;;;19.68;100.00
60355;BME280;46198;51.464;-0.066;2023-06-10T07:46:37;101217.84;;;20.00;100.00
60355;BME280;46198;51.464;-0.066;2023-06-10T07:49:06;101216.75;;;20.21;100.00
60355;BME280;46198;51.464;-0.066;2023-06-10T07:51:34;101211.81;;;20.54;100.00
60355;BME280;46198;51.464;-0.066;2023-06-10T07:54:03;101215.38;;;20.70;100.00
60355;BME280;46198;51.464;-0.066;2023-06-10T07:56:31;101218.97;;;20.75;100.00
60355;BME280;46198;51.464;-0.066;2023-06-10T07:58:59;101220.31;;;20.98;100.00
60355;BME280;46198;51.464;-0.066;2023-06-10T08:01:28;101223.66;;;21.60;100.00
60355;BME280;46198;51.464;-0.066;2023-06-10T08:03:56;101217.31;;;21.55;100.00
60355;BME280;46198;51.464;-0.066;2023-06-10T08:06:26;101218.56;;;21.83;100.00
60355;BME280;46198;51.464;-0.066;2023-06-10T08:08:54;101214.75;;;22.13;100.00
60355;BME280;46198;51.464;-0.066;2023-06-10T08:11:23;101219.13;;;22.59;100.00
60355;BME280;46198;51.464;-0.066;2023-06-10T08:13:52;101213.13;;;22.46;100.00
60355;BME280;46198;51.464;-0.066;2023-06-10T08:16:20;101216.94;;;22.79;100.00
60355;BME280;46198;51.464;-0.066;2023-06-10T08:18:48;101209.41;;;22.61;100.00
60355;BME280;46198;51.464;-0.066;2023-06-10T08:21:21;101219.97;;;22.83;100.00
60355;BME280;46198;51.464;-0.066;2023-06-10T08:23:53;101216.94;;;23.09;100.00
60355;BME280;46198;51.464;-0.066;2023-06-10T08:26:22;101215.81;;;23.10;100.00
60355;BME280;46198;51.464;-0.066;2023-06-10T08:28:50;101214.66;;;23.16;100.00
60355;BME280;46198;51.464;-0.066;2023-06-10T08:31:18;101217.59;;;23.67;100.00
60355;BME280;46198;51.464;-0.066;2023-06-10T08:33:46;101222.63;;;23.41;100.00
60355;BME280;46198;51.464;-0.066;2023-06-10T08:36:14;101232.31;;;23.87;100.00
60355;BME280;46198;51.464;-0.066;2023-06-10T08:38:43;101224.44;;;24.13;100.00
60355;BME280;46198;51.464;-0.066;2023-06-10T08:41:17;101220.69;;;24.04;95.81
60355;BME280;46198;51.464;-0.066;2023-06-10T08:43:48;101221.00;;;24.02;95.38
60355;BME280;46198;51.464;-0.066;2023-06-10T08:46:22;101216.97;;;24.27;96.76
60355;BME280;46198;51.464;-0.066;2023-06-10T08:48:54;101210.31;;;24.61;90.90
60355;BME280;46198;51.464;-0.066;2023-06-10T08:51:23;101210.56;;;24.79;85.01
60355;BME280;46198;51.464;-0.066;2023-06-10T08:53:56;101221.88;;;25.10;89.51
60355;BME280;46198;51.464;-0.066;2023-06-10T08:56:31;101218.81;;;25.39;86.37
60355;BME280;46198;51.464;-0.066;2023-06-10T08:59:01;101215.41;;;25.42;80.02
60355;BME280;46198;51.464;-0.066;2023-06-10T09:01:30;101218.34;;;25.59;94.84
60355;BME280;46198;51.464;-0.066;2023-06-10T09:03:58;101213.97;;;25.81;86.19
60355;BME280;46198;51.464;-0.066;2023-06-10T09:06:27;101216.09;;;26.12;93.60
60355;BME280;46198;51.464;-0.066;2023-06-10T09:08:57;101214.06;;;26.26;75.33
60355;BME280;46198;51.464;-0.066;2023-06-10T09:11:31;101205.94;;;26.38;71.90
60355;BME280;46198;51.464;-0.066;2023-06-10T09:13:59;101209.06;;;26.37;79.24
60355;BME280;46198;51.464;-0.066;2023-06-10T09:16:28;101212.66;;;26.37;71.03
60355;BME280;46198;51.464;-0.066;2023-06-10T09:18:56;101204.94;;;26.57;75.46
60355;BME280;46198;51.464;-0.066;2023-06-10T09:21:25;101206.47;;;25.95;71.33
60355;BME280;46198;51.464;-0.066;2023-06-10T09:23:53;101199.56;;;26.38;72.16
60355;BME280;46198;51.464;-0.066;2023-06-10T09:26:27;101197.47;;;26.21;75.19
60355;BME280;46198;51.464;-0.066;2023-06-10T09:29:03;101197.41;;;26.57;73.49
60355;BME280;46198;51.464;-0.066;2023-06-10T09:31:34;101196.91;;;26.33;68.85
60355;BME280;46198;51.464;-0.066;2023-06-10T09:34:08;101198.25;;;26.13;70.00
60355;BME280;46198;51.464;-0.066;2023-06-10T09:36:37;101201.50;;;26.37;76.85
60355;BME280;46198;51.464;-0.066;2023-06-10T09:39:13;101201.16;;;26.52;69.86
60355;BME280;46198;51.464;-0.066;2023-06-10T09:41:42;101203.81;;;26.58;68.09
60355;BME280;46198;51.464;-0.066;2023-06-10T09:44:14;101207.34;;;26.81;71.28
60355;BME280;46198;51.464;-0.066;2023-06-10T09:46:44;101202.97;;;27.28;78.45
60355;BME280;46198;51.464;-0.066;2023-06-10T09:49:13;101208.25;;;26.99;62.78
60355;BME280;46198;51.464;-0.066;2023-06-10T09:51:49;101213.50;;;27.00;69.97
60355;BME280;46198;51.464;-0.066;2023-06-10T09:54:18;101205.78;;;27.28;64.63
60355;BME280;46198;51.464;-0.066;2023-06-10T09:56:47;101206.91;;;27.36;72.13
60355;BME280;46198;51.464;-0.066;2023-06-10T09:59:28;101202.56;;;27.70;66.67
60355;BME280;46198;51.464;-0.066;2023-06-10T10:01:57;101212.09;;;27.77;61.63
60355;BME280;46198;51.464;-0.066;2023-06-10T10:04:28;101211.56;;;27.58;63.31
60355;BME280;46198;51.464;-0.066;2023-06-10T10:06:58;101200.09;;;27.77;64.90
60355;BME280;46198;51.464;-0.066;2023-06-10T10:09:26;101199.81;;;28.04;61.76
60355;BME280;46198;51.464;-0.066;2023-06-10T10:11:55;101197.63;;;28.27;60.90
60355;BME280;46198;51.464;-0.066;2023-06-10T10:14:25;101203.06;;;28.15;54.92
60355;BME280;46198;51.464;-0.066;2023-06-10T10:16:54;101188.41;;;28.36;59.33
60355;BME280;46198;51.464;-0.066;2023-06-10T10:19:27;101197.91;;;28.61;58.61
60355;BME280;46198;51.464;-0.066;2023-06-10T10:22:01;101193.22;;;28.91;55.46
60355;BME280;46198;51.464;-0.066;2023-06-10T10:24:33;101192.53;;;28.94;52.99
60355;BME280;46198;51.464;-0.066;2023-06-10T10:27:06;101189.63;;;28.82;50.86
60355;BME280;46198;51.464;-0.066;2023-06-10T10:29:38;101188.19;;;29.14;58.22
60355;BME280;46198;51.464;-0.066;2023-06-10T10:32:08;101185.44;;;28.97;52.06
60355;BME280;46198;51.464;-0.066;2023-06-10T10:34:43;101181.75;;;29.43;50.45
60355;BME280;46198;51.464;-0.066;2023-06-10T10:37:17;101185.59;;;29.59;46.34
60355;BME280;46198;51.464;-0.066;2023-06-10T10:39:45;101183.28;;;29.62;47.38
60355;BME280;46198;51.464;-0.066;2023-06-10T10:42:14;101181.56;;;29.48;43.50
60355;BME280;46198;51.464;-0.066;2023-06-10T10:44:44;101177.41;;;29.54;45.53
60355;BME280;46198;51.464;-0.066;2023-06-10T10:47:13;101176.66;;;29.87;47.12
60355;BME280;46198;51.464;-0.066;2023-06-10T10:49:43;101176.19;;;29.85;42.20
60355;BME280;46198;51.464;-0.066;2023-06-10T10:52:12;101175.28;;;29.93;45.56
60355;BME280;46198;51.464;-0.066;2023-06-10T10:54:44;101180.78;;;30.23;42.32
60355;BME280;46198;51.464;-0.066;2023-06-10T10:57:14;101181.47;;;30.20;41.36
60355;BME280;46198;51.464;-0.066;2023-06-10T10:59:46;101180.78;;;30.02;40.59
60355;BME280;46198;51.464;-0.066;2023-06-10T11:02:32;101176.38;;;30.34;41.36
60355;BME280;46198;51.464;-0.066;2023-06-10T11:05:01;101178.47;;;30.25;40.04
60355;BME280;46198;51.464;-0.066;2023-06-10T11:07:30;101179.84;;;30.19;39.97
60355;BME280;46198;51.464;-0.066;2023-06-10T11:10:00;101173.97;;;30.12;41.89
60355;BME280;46198;51.464;-0.066;2023-06-10T11:12:49;101172.19;;;30.28;40.14
60355;BME280;46198;51.464;-0.066;2023-06-10T11:15:20;101177.75;;;29.74;40.65
60355;BME280;46198;51.464;-0.066;2023-06-10T11:18:09;101166.47;;;30.24;39.99
60355;BME280;46198;51.464;-0.066;2023-06-10T11:20:59;101162.44;;;30.46;39.00
60355;BME280;46198;51.464;-0.066;2023-06-10T11:23:38;101165.72;;;30.48;39.27
60355;BME280;46198;51.464;-0.066;2023-06-10T11:26:14;101161.19;;;30.23;41.14
60355;BME280;46198;51.464;-0.066;2023-06-10T11:29:03;101165.22;;;30.59;40.11
60355;BME280;46198;51.464;-0.066;2023-06-10T11:31:35;101161.28;;;30.60;39.67
60355;BME280;46198;51.464;-0.066;2023-06-10T11:34:06;101159.06;;;30.78;39.15
60355;BME280;46198;51.464;-0.066;2023-06-10T11:36:38;101169.63;;;30.93;41.23
60355;BME280;46198;51.464;-0.066;2023-06-10T11:39:09;101160.59;;;30.63;39.11
60355;BME280;46198;51.464;-0.066;2023-06-10T11:41:38;101162.97;;;30.85;39.55
60355;BME280;46198;51.464;-0.066;2023-06-10T11:44:08;101170.06;;;30.83;38.57
60355;BME280;46198;51.464;-0.066;2023-06-10T11:46:38;101167.84;;;31.13;38.32
60355;BME280;46198;51.464;-0.066;2023-06-10T11:49:06;101158.13;;;31.47;39.94
60355;BME280;46198;51.464;-0.066;2023-06-10T11:51:36;101158.16;;;31.75;37.06
60355;BME280;46198;51.464;-0.066;2023-06-10T11:54:08;101158.72;;;31.28;38.52
60355;BME280;46198;51.464;-0.066;2023-06-10T11:56:37;101145.97;;;31.84;38.50
60355;BME280;46198;51.464;-0.066;2023-06-10T11:59:06;101156.94;;;31.89;35.86
60355;BME280;46198;51.464;-0.066;2023-06-10T12:01:35;101159.66;;;31.85;35.01
60355;BME280;46198;51.464;-0.066;2023-06-10T12:04:11;101157.47;;;31.78;35.61
60355;BME280;46198;51.464;-0.066;2023-06-10T12:06:41;101154.94;;;31.89;34.79
60355;BME280;46198;51.464;-0.066;2023-06-10T12:09:15;101156.16;;;31.23;36.41
60355;BME280;46198;51.464;-0.066;2023-06-10T12:11:51;101159.13;;;31.67;34.30
60355;BME280;46198;51.464;-0.066;2023-06-10T12:14:51;101153.50;;;31.67;35.80
60355;BME280;46198;51.464;-0.066;2023-06-10T12:17:21;101158.41;;;31.70;36.84
60355;BME280;46198;51.464;-0.066;2023-06-10T12:19:52;101149.22;;;31.98;34.85
60355;BME280;46198;51.464;-0.066;2023-06-10T12:22:20;101141.84;;;32.37;34.20
60355;BME280;46198;51.464;-0.066;2023-06-10T12:25:01;101153.03;;;32.06;35.10
60355;BME280;46198;51.464;-0.066;2023-06-10T12:27:30;101150.59;;;32.04;34.16
60355;BME280;46198;51.464;-0.066;2023-06-10T12:29:59;101152.34;;;32.09;34.46
60355;BME280;46198;51.464;-0.066;2023-06-10T12:32:36;101145.97;;;32.72;33.81
60355;BME280;46198;51.464;-0.066;2023-06-10T12:35:08;101133.31;;;31.90;36.67
60355;BME280;46198;51.464;-0.066;2023-06-10T12:37:37;101140.13;;;32.33;34.36
60355;BME280;46198;51.464;-0.066;2023-06-10T12:40:10;101136.78;;;32.43;33.58
60355;BME280;46198;51.464;-0.066;2023-06-10T12:42:39;101136.00;;;32.58;33.16
60355;BME280;46198;51.464;-0.066;2023-06-10T12:45:08;101139.81;;;32.50;33.85
60355;BME280;46198;51.464;-0.066;2023-06-10T12:47:38;101133.50;;;32.41;33.51